createdAt,value
2023-03-12T00:00:49.369Z,3.20
2023-03-12T00:03:52.003Z,2.83
2023-03-12T00:06:54.403Z,2.67
2023-03-12T00:09:59.083Z,3.20
2023-03-12T00:13:01.711Z,2.67
2023-03-12T00:16:09.604Z,2.47
2023-03-12T00:19:15.337Z,2.42
2023-03-12T00:22:23.091Z,2.80
2023-03-12T00:25:27.625Z,2.70
2023-03-12T00:28:32.644Z,2.83
2023-03-12T00:31:36.477Z,2.70
2023-03-12T00:34:41.069Z,2.60
2023-03-12T00:37:45.657Z,2.90
2023-03-12T00:40:50.623Z,2.50
2023-03-12T00:43:53.304Z,2.47
2023-03-12T00:46:55.575Z,2.45
2023-03-12T00:49:57.835Z,2.08
2023-03-12T00:53:00.320Z,2.30
2023-03-12T00:56:04.301Z,2.20
2023-03-12T00:59:08.844Z,2.78
2023-03-12T01:02:11.137Z,2.45
2023-03-12T01:05:14.778Z,2.47
2023-03-12T01:08:17.094Z,2.50
2023-03-12T01:11:23.306Z,2.17
2023-03-12T01:14:25.646Z,2.05
2023-03-12T01:17:28.490Z,2.40
2023-03-12T01:20:31.142Z,2.90
2023-03-12T01:23:33.425Z,2.38
2023-03-12T01:26:40.404Z,2.35
2023-03-12T01:29:45.430Z,2.67
2023-03-12T01:32:47.938Z,2.30
2023-03-12T01:35:50.541Z,2.40
2023-03-12T01:38:55.192Z,1.98
2023-03-12T01:41:57.867Z,2.30
2023-03-12T01:45:04.479Z,2.60
2023-03-12T01:48:08.787Z,2.00
2023-03-12T01:51:16.038Z,2.28
2023-03-12T01:54:26.572Z,2.17
2023-03-12T01:57:39.749Z,2.03
2023-03-12T02:00:45.722Z,2.20
2023-03-12T02:03:52.472Z,2.38
2023-03-12T02:07:10.361Z,2.38
2023-03-12T02:10:13.012Z,2.35
2023-03-12T02:13:16.406Z,1.90
2023-03-12T02:16:21.418Z,2.30
2023-03-12T02:19:42.417Z,2.40
2023-03-12T02:22:51.269Z,2.10
2023-03-12T02:25:56.930Z,2.40
2023-03-12T02:29:00.597Z,2.28
2023-03-12T02:32:04.535Z,2.38
2023-03-12T02:35:07.220Z,2.28
2023-03-12T02:38:40.672Z,2.50
2023-03-12T02:41:46.824Z,2.58
2023-03-12T02:44:52.379Z,2.85
2023-03-12T02:47:54.619Z,2.30
2023-03-12T02:50:57.238Z,2.70
2023-03-12T02:54:02.027Z,2.45
2023-03-12T02:57:04.430Z,2.67
2023-03-12T03:00:18.819Z,2.85
2023-03-12T03:03:30.254Z,2.50
2023-03-12T03:06:34.322Z,2.50
2023-03-12T03:09:36.750Z,2.72
2023-03-12T03:12:41.356Z,2.60
2023-03-12T03:15:43.890Z,2.65
2023-03-12T03:18:46.333Z,2.92
2023-03-12T03:21:52.153Z,2.92
2023-03-12T03:24:56.827Z,2.33
2023-03-12T03:28:01.830Z,2.72
2023-03-12T03:31:07.875Z,2.92
2023-03-12T03:34:12.671Z,3.13
2023-03-12T03:37:17.199Z,2.95
2023-03-12T03:40:20.877Z,2.72
2023-03-12T03:43:25.876Z,3.00
2023-03-12T03:46:31.181Z,3.33
2023-03-12T03:49:44.426Z,2.80
2023-03-12T03:52:49.696Z,3.33
2023-03-12T03:55:51.933Z,3.25
2023-03-12T03:58:56.644Z,3.30
2023-03-12T04:01:59.528Z,2.95
2023-03-12T04:05:04.879Z,3.47
2023-03-12T04:08:09.617Z,3.88
2023-03-12T04:11:14.984Z,3.58
2023-03-12T04:14:17.766Z,3.55
2023-03-12T04:17:24.169Z,3.45
2023-03-12T04:20:26.598Z,3.97
2023-03-12T04:23:31.387Z,3.65
2023-03-12T04:26:33.832Z,3.40
2023-03-12T04:29:39.226Z,3.25
2023-03-12T04:32:41.713Z,3.20
2023-03-12T04:35:51.797Z,3.80
2023-03-12T04:38:56.390Z,3.00
2023-03-12T04:42:03.200Z,3.00
2023-03-12T04:45:10.916Z,3.20
2023-03-12T04:48:16.093Z,3.40
2023-03-12T04:51:18.936Z,3.30
2023-03-12T04:54:26.093Z,3.65
2023-03-12T04:57:29.498Z,3.70
2023-03-12T05:00:34.282Z,3.60
2023-03-12T05:03:36.881Z,3.70
2023-03-12T05:06:39.189Z,4.03
2023-03-12T05:09:44.370Z,4.22
2023-03-12T05:12:52.566Z,3.97
2023-03-12T05:15:55.872Z,4.47
2023-03-12T05:19:02.396Z,4.07
2023-03-12T05:22:06.159Z,5.07
2023-03-12T05:25:13.803Z,4.28
2023-03-12T05:28:16.597Z,5.28
2023-03-12T05:31:24.015Z,5.35
2023-03-12T05:34:26.378Z,5.32
2023-03-12T05:37:28.889Z,5.68
2023-03-12T05:40:31.233Z,4.40
2023-03-12T05:43:34.543Z,5.32
2023-03-12T05:46:37.551Z,5.18
2023-03-12T05:49:44.268Z,4.35
2023-03-12T05:52:46.798Z,5.07
2023-03-12T05:55:49.230Z,5.22
2023-03-12T05:58:52.868Z,4.88
2023-03-12T06:01:57.105Z,4.65
2023-03-12T06:04:59.635Z,4.90
2023-03-12T06:08:03.172Z,5.53
2023-03-12T06:11:05.484Z,5.53
2023-03-12T06:14:13.482Z,4.95
2023-03-12T06:17:16.043Z,5.88
2023-03-12T06:20:18.729Z,4.65
2023-03-12T06:23:21.629Z,4.90
2023-03-12T06:26:24.798Z,4.75
2023-03-12T06:29:27.103Z,4.60
2023-03-12T06:32:31.705Z,4.35
2023-03-12T06:35:34.910Z,4.93
2023-03-12T06:38:37.359Z,5.40
2023-03-12T06:41:40.697Z,4.82
2023-03-12T06:44:42.993Z,5.10
2023-03-12T06:47:50.227Z,5.40
2023-03-12T06:50:55.482Z,4.88
2023-03-12T06:54:01.161Z,4.78
2023-03-12T06:57:03.473Z,4.47
2023-03-12T07:00:06.411Z,4.55
2023-03-12T07:03:08.797Z,4.82
2023-03-12T07:06:20.419Z,5.28
2023-03-12T07:09:25.340Z,5.10
2023-03-12T07:12:27.586Z,5.35
2023-03-12T07:15:32.169Z,4.97
2023-03-12T07:18:34.477Z,4.50
2023-03-12T07:21:39.726Z,4.72
2023-03-12T07:24:42.054Z,4.93
2023-03-12T07:27:48.397Z,5.13
2023-03-12T07:30:53.253Z,5.07
2023-03-12T07:33:57.117Z,5.50
2023-03-12T07:37:00.127Z,5.65
2023-03-12T07:40:05.676Z,5.40
2023-03-12T07:43:12.645Z,5.20
2023-03-12T07:46:16.487Z,5.15
2023-03-12T07:49:26.587Z,5.13
2023-03-12T07:52:28.827Z,4.65
2023-03-12T07:55:32.984Z,4.38
2023-03-12T07:58:36.599Z,5.05
2023-03-12T08:01:39.051Z,4.47
2023-03-12T08:04:43.483Z,4.93
2023-03-12T08:07:46.550Z,5.35
2023-03-12T08:10:48.886Z,5.55
2023-03-12T08:13:51.154Z,4.90
2023-03-12T08:16:53.425Z,4.60
2023-03-12T08:19:55.767Z,4.57
2023-03-12T08:23:03.702Z,4.30
2023-03-12T08:26:08.668Z,4.40
2023-03-12T08:29:11.501Z,5.05
2023-03-12T08:32:14.172Z,4.53
2023-03-12T08:35:19.177Z,4.60
2023-03-12T08:38:22.291Z,4.22
2023-03-12T08:41:27.296Z,4.50
2023-03-12T08:44:29.859Z,4.53
2023-03-12T08:47:32.121Z,4.85
2023-03-12T08:50:34.448Z,4.97
2023-03-12T08:53:42.478Z,5.88
2023-03-12T08:56:46.601Z,5.22
2023-03-12T08:59:53.654Z,5.18
2023-03-12T09:02:58.352Z,4.63
2023-03-12T09:06:13.577Z,4.57
2023-03-12T09:09:18.012Z,5.07
2023-03-12T09:12:24.243Z,4.80
2023-03-12T09:15:26.981Z,4.65
2023-03-12T09:18:30.148Z,5.25
2023-03-12T09:21:32.410Z,4.35
2023-03-12T09:24:34.932Z,4.05
2023-03-12T09:27:39.386Z,5.18
2023-03-12T09:30:42.403Z,4.60
2023-03-12T09:33:45.104Z,5.07
2023-03-12T09:36:52.210Z,4.85
2023-03-12T09:39:54.503Z,5.05
2023-03-12T09:43:07.406Z,4.38
2023-03-12T09:46:15.671Z,4.15
2023-03-12T09:49:32.568Z,4.80
2023-03-12T09:52:50.474Z,4.50
2023-03-12T09:55:55.641Z,4.60
2023-03-12T09:58:58.126Z,4.28
2023-03-12T10:05:30.256Z,4.82
2023-03-12T10:08:54.485Z,4.35
2023-03-12T10:12:14.236Z,4.72
2023-03-12T10:15:37.627Z,4.78
2023-03-12T10:18:52.867Z,4.55
2023-03-12T10:22:04.116Z,4.43
2023-03-12T10:25:18.574Z,3.92
2023-03-12T10:28:40.761Z,4.85
2023-03-12T10:32:01.941Z,4.00
2023-03-12T10:35:19.359Z,3.78
2023-03-12T10:41:36.622Z,4.10
2023-03-12T10:44:41.654Z,3.53
2023-03-12T10:47:50.326Z,4.40
2023-03-12T10:51:05.591Z,4.78
2023-03-12T10:54:27.489Z,3.90
2023-03-12T10:57:42.012Z,3.78
2023-03-12T11:00:56.805Z,3.85
2023-03-12T11:04:09.777Z,4.00
2023-03-12T11:07:15.149Z,4.25
2023-03-12T11:10:22.336Z,3.53
2023-03-12T11:13:35.545Z,4.03
2023-03-12T11:16:40.724Z,3.58
2023-03-12T11:19:45.133Z,3.72
2023-03-12T11:22:49.521Z,3.28
2023-03-12T11:26:11.387Z,2.60
2023-03-12T11:29:23.021Z,2.65
2023-03-12T11:32:31.163Z,2.53
2023-03-12T11:35:56.497Z,2.35
2023-03-12T11:39:37.594Z,2.50
2023-03-12T11:42:54.764Z,2.00
2023-03-12T11:46:30.031Z,1.90
2023-03-12T11:49:56.328Z,1.80
2023-03-12T11:53:04.744Z,2.00
2023-03-12T11:56:37.903Z,1.52
2023-03-12T12:00:14.086Z,2.10
2023-03-12T12:03:35.046Z,1.90
2023-03-12T12:06:40.352Z,2.10
2023-03-12T12:09:57.866Z,1.60
2023-03-12T12:13:16.655Z,1.88
2023-03-12T12:16:54.187Z,1.90
2023-03-12T12:20:11.707Z,1.60
2023-03-12T12:23:39.516Z,1.80
2023-03-12T12:27:21.244Z,1.80
2023-03-12T12:30:28.297Z,1.70
2023-03-12T12:33:54.910Z,2.08
2023-03-12T12:37:21.964Z,1.65
2023-03-12T12:40:52.058Z,1.90
2023-03-12T12:44:01.079Z,1.60
2023-03-12T12:47:06.869Z,1.77
2023-03-12T12:50:22.023Z,1.83
2023-03-12T12:53:31.097Z,2.00
2023-03-12T12:57:25.958Z,1.73
2023-03-12T13:00:46.894Z,1.67
2023-03-12T13:03:50.184Z,1.70
2023-03-12T13:06:55.154Z,1.50
2023-03-12T13:10:05.961Z,1.65
2023-03-12T13:13:20.064Z,1.60
2023-03-12T13:16:30.216Z,2.25
2023-03-12T13:19:44.893Z,1.52
2023-03-12T13:23:01.061Z,1.92
2023-03-12T13:26:48.109Z,1.80
2023-03-12T13:29:57.235Z,1.45
2023-03-12T13:33:06.596Z,1.80
2023-03-12T13:36:28.335Z,1.70
2023-03-12T13:39:39.407Z,1.60
2023-03-12T13:42:43.992Z,1.92
2023-03-12T13:46:23.041Z,2.03
2023-03-12T13:49:43.136Z,2.05
2023-03-12T13:53:15.919Z,1.95
2023-03-12T13:56:21.150Z,1.90
2023-03-12T13:59:26.041Z,2.65
2023-03-12T14:02:33.891Z,2.78
2023-03-12T14:05:58.744Z,1.92
2023-03-12T14:09:06.991Z,1.70
2023-03-12T14:12:27.650Z,1.98
2023-03-12T14:15:54.146Z,1.83
2023-03-12T14:19:02.071Z,1.73
2023-03-12T14:22:11.508Z,1.80
2023-03-12T14:25:33.903Z,2.97
2023-03-12T14:28:41.654Z,1.65
2023-03-12T14:31:45.081Z,1.65
2023-03-12T14:35:19.249Z,1.60
2023-03-12T14:38:30.299Z,1.70
2023-03-12T14:41:44.178Z,1.85
2023-03-12T14:45:01.647Z,1.80
2023-03-12T14:48:06.120Z,1.65
2023-03-12T14:51:10.595Z,1.50
2023-03-12T14:54:23.746Z,1.98
2023-03-12T14:57:27.206Z,1.80
2023-03-12T15:00:33.550Z,1.80
2023-03-12T15:03:47.067Z,1.40
2023-03-12T15:07:12.746Z,1.60
2023-03-12T15:10:23.374Z,2.30
2023-03-12T15:13:29.961Z,2.10
2023-03-12T15:16:33.311Z,2.22
2023-03-12T15:19:43.270Z,2.03
2023-03-12T15:22:45.836Z,2.00
2023-03-12T15:26:08.228Z,2.17
2023-03-12T15:29:28.588Z,1.90
2023-03-12T15:32:31.985Z,2.20
2023-03-12T15:35:43.039Z,1.83
2023-03-12T15:38:48.649Z,2.10
2023-03-12T15:41:51.497Z,2.10
2023-03-12T15:44:59.152Z,2.25
2023-03-12T15:48:01.728Z,1.95
2023-03-12T15:51:16.407Z,2.03
2023-03-12T15:54:18.558Z,1.95
2023-03-12T15:57:25.878Z,1.95
2023-03-12T16:00:41.399Z,2.40
2023-03-12T16:03:46.140Z,2.00
2023-03-12T16:06:50.188Z,1.95
2023-03-12T16:09:52.482Z,1.90
2023-03-12T16:13:05.165Z,1.85
2023-03-12T16:16:12.155Z,2.13
2023-03-12T16:19:21.811Z,2.10
2023-03-12T16:22:26.875Z,2.00
2023-03-12T16:25:33.091Z,2.28
2023-03-12T16:28:36.403Z,2.17
2023-03-12T16:31:40.922Z,2.50
2023-03-12T16:34:44.888Z,1.88
2023-03-12T16:37:47.174Z,2.17
2023-03-12T16:40:51.190Z,1.88
2023-03-12T16:43:58.868Z,2.20
2023-03-12T16:47:03.963Z,2.58
2023-03-12T16:50:19.912Z,2.38
2023-03-12T16:53:25.359Z,2.42
2023-03-12T16:56:27.702Z,2.08
2023-03-12T16:59:37.992Z,2.60
2023-03-12T17:02:40.399Z,2.20
2023-03-12T17:05:44.956Z,2.13
2023-03-12T17:08:49.542Z,2.17
2023-03-12T17:11:52.264Z,2.50
2023-03-12T17:14:57.417Z,2.38
2023-03-12T17:18:03.480Z,2.17
2023-03-12T17:24:08.108Z,2.45
2023-03-12T17:27:10.805Z,3.17
2023-03-12T17:30:13.447Z,3.05
2023-03-12T17:33:17.358Z,2.50
2023-03-12T17:36:21.939Z,2.80
2023-03-12T17:39:27.263Z,2.60
2023-03-12T17:42:31.421Z,2.90
2023-03-12T17:45:36.484Z,2.85
2023-03-12T17:48:38.737Z,3.30
2023-03-12T17:51:45.747Z,2.88
2023-03-12T17:54:48.052Z,2.90
2023-03-12T17:57:50.628Z,2.78
2023-03-12T18:00:52.925Z,2.88
2023-03-12T18:03:55.728Z,3.00
2023-03-12T18:07:00.674Z,2.90
2023-03-12T18:10:05.748Z,3.63
2023-03-12T18:13:11.412Z,3.50
2023-03-12T18:16:16.837Z,4.20
2023-03-12T18:19:19.362Z,4.20
2023-03-12T18:22:26.377Z,4.47
2023-03-12T18:25:30.933Z,5.50
2023-03-12T18:28:33.270Z,7.15
2023-03-12T18:31:36.098Z,10.00
2023-03-12T18:34:42.428Z,11.70
2023-03-12T18:37:47.630Z,10.75
2023-03-12T18:40:52.208Z,8.00
2023-03-12T18:43:54.591Z,7.60
2023-03-12T18:46:57.064Z,6.90
2023-03-12T18:50:02.292Z,5.28
2023-03-12T18:53:09.199Z,4.38
2023-03-12T18:56:14.645Z,4.25
2023-03-12T18:59:17.361Z,5.57
2023-03-12T19:02:20.762Z,5.93
2023-03-12T19:05:23.179Z,6.63
2023-03-12T19:08:25.412Z,7.47
2023-03-12T19:11:28.304Z,7.88
2023-03-12T19:14:35.393Z,8.38
2023-03-12T19:17:45.060Z,8.30
2023-03-12T19:20:47.858Z,10.13
2023-03-12T19:23:53.556Z,9.85
2023-03-12T19:26:56.337Z,10.95
2023-03-12T19:30:06.432Z,11.73
2023-03-12T19:33:09.192Z,12.07
2023-03-12T19:36:11.912Z,13.93
2023-03-12T19:39:22.078Z,14.27
2023-03-12T19:42:24.426Z,14.23
2023-03-12T19:45:26.867Z,13.70
2023-03-12T19:48:31.384Z,15.75
2023-03-12T19:51:33.988Z,15.27
2023-03-12T19:54:36.353Z,16.30
2023-03-12T19:57:38.766Z,16.70
2023-03-12T20:00:41.510Z,15.95
2023-03-12T20:03:44.090Z,14.38
2023-03-12T20:06:47.341Z,15.70
2023-03-12T20:09:49.879Z,14.65
2023-03-12T20:12:52.431Z,18.40
2023-03-12T20:15:57.231Z,14.93
2023-03-12T20:18:59.600Z,16.30
2023-03-12T20:22:02.450Z,16.20
2023-03-12T20:25:05.949Z,16.00
2023-03-12T20:28:09.211Z,13.52
2023-03-12T20:31:16.152Z,15.23
2023-03-12T20:34:23.111Z,14.50
2023-03-12T20:37:25.347Z,14.52
2023-03-12T20:40:30.421Z,14.90
2023-03-12T20:43:32.766Z,13.45
2023-03-12T20:46:37.299Z,14.70
2023-03-12T20:49:39.598Z,15.18
2023-03-12T20:52:46.774Z,14.75
2023-03-12T20:55:49.013Z,15.02
2023-03-12T20:58:53.912Z,13.95
2023-03-12T21:01:56.154Z,14.68
2023-03-12T21:04:58.376Z,13.77
2023-03-12T21:08:00.706Z,14.43
2023-03-12T21:11:06.658Z,13.40
2023-03-12T21:14:08.990Z,13.15
2023-03-12T21:17:13.724Z,17.30
2023-03-12T21:20:19.046Z,13.77
2023-03-12T21:23:21.337Z,13.60
2023-03-12T21:26:23.739Z,14.45
2023-03-12T21:29:28.437Z,14.68
2023-03-12T21:32:38.593Z,14.98
2023-03-12T21:35:46.951Z,13.65
2023-03-12T21:38:52.375Z,14.57
2023-03-12T21:41:54.711Z,13.93
2023-03-12T21:45:02.230Z,16.20
2023-03-12T21:48:08.212Z,15.18
2023-03-12T21:51:12.155Z,15.30
2023-03-12T21:54:19.483Z,15.20
2023-03-12T21:57:21.742Z,15.73
2023-03-12T22:00:28.756Z,14.90
2023-03-12T22:03:31.039Z,15.05
2023-03-12T22:06:38.084Z,14.20
2023-03-12T22:09:40.355Z,13.82
2023-03-12T22:12:43.703Z,13.38
2023-03-12T22:15:59.899Z,10.88
2023-03-12T22:19:04.613Z,10.60
2023-03-12T22:22:09.640Z,11.73
2023-03-12T22:25:12.053Z,10.43
2023-03-12T22:28:15.421Z,10.32
2023-03-12T22:31:19.762Z,12.15
2023-03-12T22:34:29.623Z,11.73
2023-03-12T22:37:34.274Z,11.02
2023-03-12T22:40:38.727Z,10.73
2023-03-12T22:43:40.990Z,9.00
2023-03-12T22:46:43.345Z,10.18
2023-03-12T22:49:49.012Z,9.30
2023-03-12T22:52:51.363Z,10.48
2023-03-12T22:56:04.810Z,10.20
2023-03-12T22:59:07.118Z,10.30
2023-03-12T23:02:11.669Z,8.68
2023-03-12T23:05:13.921Z,8.77
2023-03-12T23:08:20.934Z,9.48
2023-03-12T23:11:25.487Z,9.45
2023-03-12T23:14:27.857Z,9.93
2023-03-12T23:17:34.724Z,9.38
2023-03-12T23:20:36.972Z,9.70
2023-03-12T23:23:42.227Z,9.13
2023-03-12T23:26:44.922Z,8.73
2023-03-12T23:29:47.720Z,8.90
2023-03-12T23:32:49.959Z,9.05
2023-03-12T23:35:59.356Z,9.52
2023-03-12T23:39:03.535Z,8.63
2023-03-12T23:42:10.517Z,9.27
2023-03-12T23:45:17.546Z,9.65
2023-03-12T23:48:22.802Z,9.38
2023-03-12T23:51:30.254Z,9.20
2023-03-12T23:54:32.593Z,9.32
2023-03-12T23:57:34.813Z,9.32
